Other Surface Observations
Issued by NWS

Home | Current Version | Previous Version | Text Only | Print | Product List | Glossary On
Versions: 1 2 3 4 5 6 7 8 9 10 11 12 13 14 15 16 17 18 19 20 21 22 23 24 25 26 27 28 29 30 31 32 33 34 35 36 37 38 39 40 41 42 43 44 45 46 47 48 49 50
000
SXPA56 KWBC 231509
OSOHW
:SHEF ENCODED 6-MINUTE NOS MET DATA
:NATIONAL WATER LEVEL OBSERVATION NETWORK (NWLON)
:TA(AIR TEMP DEG F)  SLP(SEA LEVEL PRESSURE INCHES)
:UD(WIND DIRECTION WHOLE DEGREES) US (WIND SPEED MPH)
:TW(WATER TEMP DEG F) UG(WIND GUSTS MPH) WC(CONDUCTIVITY uMHOS/CM)
:-9999 (MISSING VALUES)
:PROVIDED BY DOC/NOAA/NOS/CO-OPS, (301) 713-2540
:corms@noaa.gov
.E NWWH1 20190523 Z DH1436/TAIRG/DIN06/-9999/-9999/   72
.E NWWH1 20190523 Z DH1436/PLIRG/DIN06/-9999/-9999/30.01
.E NWWH1 20190523 Z DH1436/USIRG/DIN06/-9999/-9999/    6
.E NWWH1 20190523 Z DH1436/UDIRG/DIN06/-9999/-9999/  260
.E NWWH1 20190523 Z DH1436/UGIRG/DIN06/-9999/-9999/    7
.E NWWH1 20190523 Z DH1436/TWIRG/DIN06/   83/   83/   83
.A OOUH1 20190523 Z DH1448/TAIRG    75/UGIRG     1/PLIRG 30.01/UDIRG    47/USIRG     0/TWIRG    80/WCIRG -9999
.A MOKH1 20190523 Z DH1448/TAIRG    77/UGIRG    10/PLIRG 30.01/UDIRG   110/USIRG     7/TWIRG    82/WCIRG -9999
.A KLIH1 20190523 Z DH1448/TAIRG    76/UGIRG    11/PLIRG 29.99/UDIRG   299/USIRG     8/TWIRG -9999/WCIRG -9999
.A KWHH1 20190523 Z DH1448/TAIRG    76/UGIRG     6/PLIRG 29.99/UDIRG    60/USIRG     4/TWIRG    82/WCIRG -9999
.E ILOH1 20190523 Z DH1448/TAIRG/DIN06/   74/   74
.E ILOH1 20190523 Z DH1448/PLIRG/DIN06/30.01/30.01
.E ILOH1 20190523 Z DH1448/USIRG/DIN06/    0/    2
.E ILOH1 20190523 Z DH1448/UDIRG/DIN06/  180/  118
.E ILOH1 20190523 Z DH1448/UGIRG/DIN06/    1/    3
.E ILOH1 20190523 Z DH1448/TWIRG/DIN06/   77/   77
.E SNDP5 20190523 Z DH1448/TAIRG/DIN06/   65/   65
.E SNDP5 20190523 Z DH1448/PLIRG/DIN06/29.91/29.91
.E SNDP5 20190523 Z DH1448/TWIRG/DIN06/   73/   73
.E APRP7 20190523 Z DH1448/TAIRG/DIN06/   82/   82
.E APRP7 20190523 Z DH1448/PLIRG/DIN06/29.88/29.87
.E APRP7 20190523 Z DH1448/USIRG/DIN06/    1/    3
.E APRP7 20190523 Z DH1448/UDIRG/DIN06/  180/  169
.E APRP7 20190523 Z DH1448/UGIRG/DIN06/    2/    4
.E APRP7 20190523 Z DH1448/TWIRG/DIN06/   87/   87
.E PGBP7 20190523 Z DH1448/PLIRG/DIN06/29.87/29.87
.E PGBP7 20190523 Z DH1448/USIRG/DIN06/    3/    3
.E PGBP7 20190523 Z DH1448/UDIRG/DIN06/  326/  315
.E PGBP7 20190523 Z DH1448/UGIRG/DIN06/    4/    5
.E NSTP6 20190523 Z DH1448/TAIRG/DIN06/   79/   79
.E NSTP6 20190523 Z DH1448/PLIRG/DIN06/29.81/29.81
.E NSTP6 20190523 Z DH1448/USIRG/DIN06/    4/    3
.E NSTP6 20190523 Z DH1448/UDIRG/DIN06/  236/  231
.E NSTP6 20190523 Z DH1448/UGIRG/DIN06/    6/    9
.E NSTP6 20190523 Z DH1448/TWIRG/DIN06/   85/   85
.E KWJP8 20190523 Z DH1448/PLIRG/DIN06/29.81/29.81
.E KWJP8 20190523 Z DH1448/TWIRG/DIN06/   84/   84
.E WAKP8 20190523 Z DH1448/TAIRG/DIN06/   79/   79
.E WAKP8 20190523 Z DH1448/PLIRG/DIN06/29.92/29.91
.E WAKP8 20190523 Z DH1448/USIRG/DIN06/   14/   13
.E WAKP8 20190523 Z DH1448/UDIRG/DIN06/   79/   81
.E WAKP8 20190523 Z DH1448/UGIRG/DIN06/   18/   19
.E WAKP8 20190523 Z DH1448/TWIRG/DIN06/   82/   82



USA.gov is the U.S. government's official web portal to all federal, state and local government web resources and services.